Sherman Station, Maine
Current Conditions -  °F | °C
As of 12:53 AM on Tuesday 27 Jan 2015 (Local Time) from KMLT Reporting Station
Clear Clear  
Wind Chill: -9°   Ceiling: Unl
Heat Index:   Visibility: 10mi
Dew Point: -9°   Wind: 13mph
Humidity: 48%   Direction: 40°NE
Pressure: 30.19"   Gusts: 21mph
Location:  45.89°N, 68.44°W
Report Text: KMLT 270553Z AUTO 04011G18KT 10SM CLR M14/M23 A3019 RMK AO2 SLP239 T11391228 11128 21144 58030
Loading
Personal Weather Stations






























Interactive Weather Map New forecast layout! Learn more

10-Day Weather Forecast

Advertisements
Track Severe Weather on mobile